Time;durP1;ratioP1;P1;durP2;ratioP2;P2;SDS_P1;SDS_P2;PMS_P1;PMS_P2;Temp;Humidity;BMP_temperature;BMP_pressure;BME280_temperature;BME280_humidity;BME280_pressure;Samples;Min_cycle;Max_cycle;Signal;HPM_P1;HPM_P2
2022/12/27 00:00:25;;;;;;;;;;;;;;;15.20;58.64;101821.66;2075979;28;19936;-68
2022/12/27 00:01:28;;;;;;;;;;;;;;;15.20;58.61;101824.38;2063482;28;19933;-68
2022/12/27 00:02:31;;;;;;;;;;;;;;;15.21;58.41;101827.88;2065738;28;20045;-68
2022/12/27 00:03:32;;;;;;;;;;;;;;;15.20;58.47;101818.94;2070252;28;20305;-68
2022/12/27 00:04:36;;;;;;;;;;;;;;;15.20;58.69;101824.38;2070609;28;19944;-68
2022/12/27 00:05:41;;;;;;;;;;;;;;;15.20;58.50;101824.38;2068164;28;20024;-69
2022/12/27 00:06:46;;;;;;;;;;;;;;;15.21;58.64;101833.31;2058482;28;19953;-68
2022/12/27 00:07:48;;;;;;;;;;;;;;;15.19;58.65;101822.78;2057353;28;19965;-70
2022/12/27 00:08:51;;;;;;;;;;;;;;;15.20;58.63;101832.53;2072849;28;19930;-67
2022/12/27 00:09:54;;;;;;;;;;;;;;;15.20;58.45;101829.81;2072668;28;19926;-69
2022/12/27 00:10:57;;;;;;;;;;;;;;;15.20;58.41;101837.97;2069537;28;19934;-68
2022/12/27 00:11:58;;;;;;;;;;;;;;;15.20;58.69;101829.81;2076583;28;19936;-68
2022/12/27 00:13:01;;;;;;;;;;;;;;;15.20;58.47;101829.81;2076894;28;19929;-68
2022/12/27 00:14:07;;;;;;;;;;;;;;;15.20;58.69;101829.81;2069117;28;19961;-68
2022/12/27 00:15:09;;;;;;;;;;;;;;;15.20;58.45;101829.81;2072760;28;20350;-68
2022/12/27 00:16:13;;;;;;;;;;;;;;;15.20;58.47;101824.38;2073244;28;19932;-67
2022/12/27 00:17:15;;;;;;;;;;;;;;;15.20;58.51;101829.00;2072123;28;19964;-68
2022/12/27 00:18:18;;;;;;;;;;;;;;;15.20;58.50;101835.25;2066357;28;19929;-68
2022/12/27 00:19:19;;;;;;;;;;;;;;;15.19;58.55;101833.66;2063960;28;20389;-69
2022/12/27 00:20:22;;;;;;;;;;;;;;;15.19;58.66;101828.22;2067276;28;19933;-69
2022/12/27 00:21:24;;;;;;;;;;;;;;;15.19;58.44;101839.09;2069934;28;20012;-68
2022/12/27 00:22:26;;;;;;;;;;;;;;;15.19;58.62;101830.94;2064793;28;20353;-67
2022/12/27 00:23:30;;;;;;;;;;;;;;;15.20;58.49;101826.28;2060239;28;19933;-68
2022/12/27 00:24:34;;;;;;;;;;;;;;;15.20;58.57;101829.00;2063409;28;19940;-68
2022/12/27 00:25:37;;;;;;;;;;;;;;;15.20;58.59;101829.81;2061736;28;20693;-68
2022/12/27 00:26:40;;;;;;;;;;;;;;;15.19;58.67;101822.78;2065567;28;19929;-67
2022/12/27 00:27:42;;;;;;;;;;;;;;;15.20;58.46;101829.00;2078237;28;20312;-67
2022/12/27 00:28:45;;;;;;;;;;;;;;;15.19;58.71;101827.44;2074208;28;20542;-68
2022/12/27 00:29:46;;;;;;;;;;;;;;;15.20;58.53;101835.25;2063642;28;19929;-69
2022/12/27 00:30:54;;;;;;;;;;;;;;;15.19;58.58;101822.78;2080475;28;20028;-67
2022/12/27 00:31:56;;;;;;;;;;;;;;;15.19;58.71;101828.22;2077550;28;19964;-69
2022/12/27 00:32:58;;;;;;;;;;;;;;;15.19;58.66;101822.78;2062313;28;20586;-68
2022/12/27 00:34:01;;;;;;;;;;;;;;;15.19;58.28;101828.22;2061303;28;19945;-69
2022/12/27 00:35:04;;;;;;;;;;;;;;;15.17;58.42;101819.63;2063313;28;20393;-69
2022/12/27 00:36:07;;;;;;;;;;;;;;;15.19;58.52;101822.78;2061464;28;19929;-68
2022/12/27 00:37:10;;;;;;;;;;;;;;;15.19;58.40;101828.22;2059880;28;19934;-68
2022/12/27 00:38:11;;;;;;;;;;;;;;;15.19;58.68;101822.00;2062228;28;19933;-69
2022/12/27 00:39:15;;;;;;;;;;;;;;;15.19;58.63;101832.88;2045870;28;20329;-70
2022/12/27 00:40:16;;;;;;;;;;;;;;;15.18;58.68;101826.66;2059697;28;19950;-68
2022/12/27 00:41:20;;;;;;;;;;;;;;;15.19;58.61;101830.94;2063912;28;19934;-68
2022/12/27 00:42:22;;;;;;;;;;;;;;;15.19;58.65;101846.47;2057472;28;20017;-68
2022/12/27 00:43:25;;;;;;;;;;;;;;;15.18;58.50;101837.53;2071010;28;20016;-68
2022/12/27 00:44:26;;;;;;;;;;;;;;;15.19;58.51;101849.22;2067312;28;19980;-68
2022/12/27 00:45:29;;;;;;;;;;;;;;;15.18;58.62;101848.41;2053237;28;20338;-69
2022/12/27 00:46:31;;;;;;;;;;;;;;;15.18;58.58;101847.59;2057194;28;19968;-68
2022/12/27 00:47:36;;;;;;;;;;;;;;;15.18;58.52;101847.59;2064298;28;19930;-68
2022/12/27 00:48:40;;;;;;;;;;;;;;;15.18;58.75;101842.16;2064519;28;19936;-69
2022/12/27 00:49:42;;;;;;;;;;;;;;;15.18;58.54;101848.41;2061001;28;20397;-68
2022/12/27 00:50:44;;;;;;;;;;;;;;;15.19;58.58;101852.69;2066259;28;20474;-70
2022/12/27 00:51:47;;;;;;;;;;;;;;;15.18;58.51;101851.13;2064649;28;19936;-68
2022/12/27 00:52:49;;;;;;;;;;;;;;;15.18;58.70;101845.69;2061399;28;19973;-68
2022/12/27 00:53:53;;;;;;;;;;;;;;;15.18;58.57;101848.41;2062640;28;19992;-68
2022/12/27 00:54:54;;;;;;;;;;;;;;;15.18;58.55;101856.56;2065636;28;19936;-68
2022/12/27 00:55:57;;;;;;;;;;;;;;;15.18;58.54;101848.41;2066685;28;19934;-68
2022/12/27 00:57:00;;;;;;;;;;;;;;;15.18;58.57;101848.41;2065573;28;19929;-68
2022/12/27 00:58:03;;;;;;;;;;;;;;;15.17;58.57;101848.75;2062455;28;20020;-69
2022/12/27 00:59:05;;;;;;;;;;;;;;;15.18;58.71;101845.69;2062191;28;20389;-69
2022/12/27 01:00:08;;;;;;;;;;;;;;;15.18;58.65;101848.41;2061494;28;20308;-68
2022/12/27 01:01:12;;;;;;;;;;;;;;;15.17;58.54;101844.13;2059937;28;19933;-69
2022/12/27 01:02:15;;;;;;;;;;;;;;;15.17;58.52;101849.56;2079960;28;20492;-68
2022/12/27 01:03:18;;;;;;;;;;;;;;;15.18;58.65;101853.03;2081158;28;19929;-69
2022/12/27 01:04:21;;;;;;;;;;;;;;;15.18;58.71;101858.50;2065529;28;19929;-69
2022/12/27 01:05:22;;;;;;;;;;;;;;;15.18;58.71;101859.28;2061838;28;20352;-69
2022/12/27 01:06:27;;;;;;;;;;;;;;;15.17;58.56;101857.72;2053483;28;20500;-68
2022/12/27 01:07:29;;;;;;;;;;;;;;;15.18;58.49;101867.44;2054837;28;19957;-68
2022/12/27 01:08:31;;;;;;;;;;;;;;;15.18;58.63;101859.28;2061564;28;19930;-68
2022/12/27 01:09:34;;;;;;;;;;;;;;;15.17;58.59;101852.28;2059971;28;20393;-69
2022/12/27 01:10:37;;;;;;;;;;;;;;;15.17;58.51;101857.72;2082422;28;19982;-70
2022/12/27 01:11:40;;;;;;;;;;;;;;;15.17;58.65;101857.72;2077323;28;20530;-68
2022/12/27 01:12:43;;;;;;;;;;;;;;;15.17;58.55;101852.28;2067372;28;19925;-68
2022/12/27 01:13:47;;;;;;;;;;;;;;;15.17;58.46;101857.72;2063684;28;20445;-68
2022/12/27 01:14:48;;;;;;;;;;;;;;;15.17;58.58;101857.72;2063795;28;19930;-69
2022/12/27 01:15:51;;;;;;;;;;;;;;;15.17;58.61;101857.72;2063061;28;19930;-69
2022/12/27 01:16:52;;;;;;;;;;;;;;;15.16;58.50;101856.13;2058916;28;19926;-68
2022/12/27 01:17:55;;;;;;;;;;;;;;;15.18;58.68;101863.94;2062380;28;19926;-68
2022/12/27 01:18:57;;;;;;;;;;;;;;;15.17;58.52;101860.44;2066810;28;19937;-69
2022/12/27 01:20:00;;;;;;;;;;;;;;;15.16;58.54;101861.56;2063791;28;20392;-69
2022/12/27 01:21:03;;;;;;;;;;;;;;;15.17;58.66;101865.88;2063499;28;19930;-69
2022/12/27 01:22:06;;;;;;;;;;;;;;;15.17;58.73;101873.22;2062864;28;19930;-67
2022/12/27 01:23:08;;;;;;;;;;;;;;;15.18;58.66;101872.09;2064956;28;20393;-68
2022/12/27 01:24:10;;;;;;;;;;;;;;;15.16;58.54;101875.16;2070063;28;19934;-68
2022/12/27 01:25:12;;;;;;;;;;;;;;;15.17;58.53;101878.69;2073411;28;19933;-69
2022/12/27 01:26:15;;;;;;;;;;;;;;;15.16;58.50;101883.31;2062618;28;19930;-68
2022/12/27 01:27:17;;;;;;;;;;;;;;;15.16;58.67;101886.03;2065788;28;19929;-68
2022/12/27 01:28:21;;;;;;;;;;;;;;;15.16;58.67;101899.63;2064716;28;19934;-68
2022/12/27 01:29:23;;;;;;;;;;;;;;;15.16;58.65;101894.19;2060721;28;19934;-68
2022/12/27 01:30:25;;;;;;;;;;;;;;;15.16;58.53;101899.63;2061350;28;20297;-69
2022/12/27 01:31:27;;;;;;;;;;;;;;;15.16;58.63;101893.44;2062617;28;19930;-70
2022/12/27 01:32:32;;;;;;;;;;;;;;;15.16;58.55;101883.31;2062612;28;20483;-68
2022/12/27 01:33:33;;;;;;;;;;;;;;;15.16;58.57;101894.19;2059942;28;19937;-69
2022/12/27 01:34:36;;;;;;;;;;;;;;;15.16;58.58;101887.97;2066618;28;20400;-69
2022/12/27 01:35:39;;;;;;;;;;;;;;;15.16;58.57;101896.91;2066286;28;19933;-69
2022/12/27 01:36:42;;;;;;;;;;;;;;;15.17;58.69;101889.56;2057480;28;19933;-69
2022/12/27 01:37:44;;;;;;;;;;;;;;;15.16;58.49;101891.47;2068264;28;19929;-69
2022/12/27 01:38:47;;;;;;;;;;;;;;;15.16;58.60;101893.44;2070271;28;19990;-68
2022/12/27 01:39:49;;;;;;;;;;;;;;;15.16;58.44;101888.75;2055365;28;20666;-68
2022/12/27 01:40:52;;;;;;;;;;;;;;;15.16;58.58;101894.19;2060398;28;19930;-69
2022/12/27 01:43:37;;;;;;;;;;;;;;;15.16;58.63;101894.19;2047020;28;21819;-69
2022/12/27 01:44:55;;;;;;;;;;;;;;;15.15;58.72;101892.63;2047937;28;19930;-68
2022/12/27 01:45:58;;;;;;;;;;;;;;;15.15;58.54;101900.78;2046861;28;20502;-69
2022/12/27 01:47:01;;;;;;;;;;;;;;;15.15;58.57;101903.50;2036220;29;20022;-68
2022/12/27 01:48:05;;;;;;;;;;;;;;;15.15;58.58;101898.06;2036904;29;19974;-68
2022/12/27 01:49:07;;;;;;;;;;;;;;;15.15;58.35;101911.66;2046407;28;19953;-68
2022/12/27 01:50:14;;;;;;;;;;;;;;;15.16;58.55;101910.53;2065349;28;19996;-68
2022/12/27 01:51:17;;;;;;;;;;;;;;;15.15;58.42;101908.94;2067975;28;19930;-67
2022/12/27 01:52:20;;;;;;;;;;;;;;;15.15;58.49;101906.22;2053802;28;20023;-68
2022/12/27 01:53:24;;;;;;;;;;;;;;;15.15;58.43;101911.66;2057392;28;19926;-67
2022/12/27 01:54:26;;;;;;;;;;;;;;;15.15;58.44;101908.94;2062615;28;19965;-67
2022/12/27 01:55:31;;;;;;;;;;;;;;;15.15;58.58;101908.94;2064226;28;19979;-68
2022/12/27 01:56:32;;;;;;;;;;;;;;;15.15;58.72;101919.81;2062006;28;19934;-69
2022/12/27 01:57:35;;;;;;;;;;;;;;;15.16;58.63;101915.19;2062226;28;19940;-70
2022/12/27 01:58:41;;;;;;;;;;;;;;;15.15;58.66;101902.69;2061884;28;19929;-70
2022/12/27 01:59:43;;;;;;;;;;;;;;;15.15;58.52;101910.88;2062568;28;19980;-69
2022/12/27 02:00:47;;;;;;;;;;;;;;;15.15;58.55;101914.38;2062572;28;19931;-69
2022/12/27 02:01:49;;;;;;;;;;;;;;;15.15;58.63;101908.94;2062852;28;20027;-69
2022/12/27 02:02:53;;;;;;;;;;;;;;;15.14;58.35;101912.81;2078310;28;19931;-68
2022/12/27 02:03:56;;;;;;;;;;;;;;;15.14;58.45;101918.25;2075082;28;20452;-68
2022/12/27 02:04:59;;;;;;;;;;;;;;;15.15;58.55;101908.94;2060646;28;19936;-70
2022/12/27 02:06:02;;;;;;;;;;;;;;;15.13;58.74;101911.22;2065277;28;19925;-69
2022/12/27 02:07:05;;;;;;;;;;;;;;;15.15;58.46;101924.47;2081093;28;20489;-68
2022/12/27 02:08:31;;;;;;;;;;;;;;;15.15;58.55;101922.53;2069775;28;19933;-69
2022/12/27 02:09:36;;;;;;;;;;;;;;;15.15;58.57;101919.81;2063319;28;20667;-68
2022/12/27 02:10:38;;;;;;;;;;;;;;;15.15;58.61;101924.47;2062457;28;20361;-68
2022/12/27 02:11:51;;;;;;;;;;;;;;;15.15;58.62;101919.03;2062948;28;20293;-69
2022/12/27 02:12:53;;;;;;;;;;;;;;;15.15;58.45;101930.72;2059864;28;19929;-69
2022/12/27 02:13:57;;;;;;;;;;;;;;;15.15;58.45;101924.47;2058851;28;19930;-68
2022/12/27 02:15:00;;;;;;;;;;;;;;;15.14;58.50;101917.44;2055808;28;19933;-68
2022/12/27 02:16:09;;;;;;;;;;;;;;;15.14;58.64;101918.25;2061403;28;19934;-68
2022/12/27 02:17:13;;;;;;;;;;;;;;;15.14;58.46;101923.69;2063928;28;19926;-68
2022/12/27 02:18:16;;;;;;;;;;;;;;;15.14;58.40;101920.97;2060697;28;19934;-69
2022/12/27 02:19:23;;;;;;;;;;;;;;;15.15;58.52;101924.47;2061440;28;19930;-68
2022/12/27 02:20:30;;;;;;;;;;;;;;;15.14;58.41;101923.69;2050615;28;19930;-67
2022/12/27 02:21:44;;;;;;;;;;;;;;;15.15;58.58;101924.47;2056435;28;20345;-68
2022/12/27 02:24:51;;;;;;;;;;;;;;;15.14;58.45;101931.84;2034767;28;20064;-68
2022/12/27 02:26:07;;;;;;;;;;;;;;;15.14;58.49;101929.13;2045876;28;19935;-68
2022/12/27 02:27:18;;;;;;;;;;;;;;;15.14;58.32;101926.41;2057322;28;20000;-68
2022/12/27 02:28:29;;;;;;;;;;;;;;;15.14;58.66;101928.34;2052710;28;20046;-68
2022/12/27 02:29:52;;;;;;;;;;;;;;;15.14;58.52;101933.78;2057013;28;19953;-68
2022/12/27 02:30:57;;;;;;;;;;;;;;;15.14;58.49;101939.22;2062034;28;20550;-67
2022/12/27 02:32:03;;;;;;;;;;;;;;;15.13;58.62;101949.28;2062083;28;20700;-69
2022/12/27 02:33:09;;;;;;;;;;;;;;;15.14;58.25;101944.66;2064086;28;19933;-69
2022/12/27 02:34:15;;;;;;;;;;;;;;;15.13;58.37;101954.72;2062031;28;20050;-68
2022/12/27 02:35:20;;;;;;;;;;;;;;;15.14;58.51;101941.94;2060932;28;19980;-69
2022/12/27 02:36:25;;;;;;;;;;;;;;;15.14;58.50;101950.09;2059687;28;19927;-68
2022/12/27 02:37:30;;;;;;;;;;;;;;;15.13;58.56;101943.84;2062858;28;19929;-70
2022/12/27 02:38:36;;;;;;;;;;;;;;;15.13;58.46;101946.56;2054258;28;19932;-68
2022/12/27 02:39:40;;;;;;;;;;;;;;;15.13;58.54;101949.28;2057330;28;19930;-68
2022/12/27 02:53:06;;;;;;;;;;;;;;;15.12;58.46;101944.19;2056366;28;19930;-69
2022/12/27 02:54:17;;;;;;;;;;;;;;;15.11;58.32;101951.56;2065796;28;19930;-69
2022/12/27 02:55:31;;;;;;;;;;;;;;;15.13;58.29;101948.53;2060596;28;20687;-68
2022/12/27 02:58:14;;;;;;;;;;;;;;;15.11;58.48;101951.56;2037102;29;20422;-68
2022/12/27 02:59:22;;;;;;;;;;;;;;;15.11;58.50;101951.56;2056210;28;20603;-69
2022/12/27 03:03:27;;;;;;;;;;;;;;;15.12;58.32;101957.81;2037132;29;19934;-68
2022/12/27 03:04:49;;;;;;;;;;;;;;;15.11;58.51;101965.16;2037887;29;20034;-68
2022/12/27 03:07:29;;;;;;;;;;;;;;;15.12;58.43;101971.41;2038231;28;19937;-68
2022/12/27 03:08:36;;;;;;;;;;;;;;;15.12;58.50;101963.25;2061289;28;19938;-68
2022/12/27 03:16:56;;;;;;;;;;;;;;;15.11;58.38;101980.72;2050670;28;20310;-67
2022/12/27 03:18:02;;;;;;;;;;;;;;;15.11;58.51;101972.53;2053477;28;19927;-68
2022/12/27 03:19:08;;;;;;;;;;;;;;;15.10;58.58;101971.75;2064673;28;19937;-68
2022/12/27 03:25:55;;;;;;;;;;;;;;;15.10;58.42;101988.06;2037628;28;19931;-68
2022/12/27 03:26:57;;;;;;;;;;;;;;;15.10;58.58;101977.19;2047693;28;19934;-68
2022/12/27 03:33:31;;;;;;;;;;;;;;;15.09;58.32;101985.69;2059954;28;19930;-67
2022/12/27 03:34:38;;;;;;;;;;;;;;;15.09;58.57;101991.94;2054298;28;20000;-68
2022/12/27 03:38:01;;;;;;;;;;;;;;;15.09;58.37;101996.56;2058809;28;19965;-68
2022/12/27 03:38:33;;;;;;;;;;;;;;;15.09;58.25;101983.78;2063310;28;20349;-67
2022/12/27 03:39:37;;;;;;;;;;;;;;;15.08;58.35;101979.44;2067436;28;20412;-67
2022/12/27 03:43:09;;;;;;;;;;;;;;;15.09;58.36;101982.97;2068894;28;19940;-67
2022/12/27 03:43:32;;;;;;;;;;;;;;;15.09;58.48;101986.50;2070618;28;19929;-67
2022/12/27 03:44:34;;;;;;;;;;;;;;;15.09;58.59;101981.06;2070213;28;19929;-68
2022/12/27 03:47:24;;;;;;;;;;;;;;;15.08;58.56;101987.59;2062240;28;19936;-68
2022/12/27 03:48:31;;;;;;;;;;;;;;;15.09;58.29;101991.13;2052902;28;20433;-68
2022/12/27 03:49:35;;;;;;;;;;;;;;;15.09;58.51;101989.22;2055138;28;19930;-69
2022/12/27 03:50:42;;;;;;;;;;;;;;;15.09;58.42;101996.56;2063714;28;19933;-69
2022/12/27 03:51:48;;;;;;;;;;;;;;;15.08;58.27;101993.03;2056018;28;19964;-69
2022/12/27 03:52:52;;;;;;;;;;;;;;;15.09;58.23;101991.13;2054564;28;20075;-68
2022/12/27 03:53:58;;;;;;;;;;;;;;;15.08;58.34;101995.78;2063781;28;19937;-69
2022/12/27 03:55:00;;;;;;;;;;;;;;;15.08;58.25;102001.22;2060878;28;19937;-70
2022/12/27 03:56:04;;;;;;;;;;;;;;;15.08;58.30;102006.66;2054839;28;19934;-68
2022/12/27 03:57:09;;;;;;;;;;;;;;;15.08;58.45;102005.88;2056767;28;19980;-68
2022/12/27 03:58:10;;;;;;;;;;;;;;;15.07;58.29;102002.34;2065547;28;19934;-68
2022/12/27 03:59:13;;;;;;;;;;;;;;;15.08;58.45;102000.44;2063797;28;19937;-68
2022/12/27 04:00:15;;;;;;;;;;;;;;;15.08;58.50;102001.22;2065111;28;20016;-68
2022/12/27 04:01:18;;;;;;;;;;;;;;;15.07;58.36;101999.63;2064530;28;19937;-69
2022/12/27 04:02:22;;;;;;;;;;;;;;;15.07;58.35;102005.06;2065295;28;20437;-68
2022/12/27 04:03:25;;;;;;;;;;;;;;;15.09;58.08;102002.00;2061671;28;19936;-68
2022/12/27 04:04:27;;;;;;;;;;;;;;;15.08;58.41;102005.88;2055214;28;19934;-68
2022/12/27 04:05:29;;;;;;;;;;;;;;;15.08;58.35;102008.59;2063981;28;19956;-68
2022/12/27 04:06:31;;;;;;;;;;;;;;;15.07;58.30;101998.84;2064320;28;19933;-68
2022/12/27 04:07:33;;;;;;;;;;;;;;;15.07;58.58;102015.94;2056507;28;19988;-68
2022/12/27 04:35:27;;;;;;;;;;;;;;;15.05;58.43;102050.09;2062031;28;20390;-68
2022/12/27 04:36:29;;;;;;;;;;;;;;;15.05;58.03;102061.72;2065594;28;20052;-68
2022/12/27 04:37:31;;;;;;;;;;;;;;;15.05;58.35;102056.28;2057919;28;19951;-68
2022/12/27 04:38:34;;;;;;;;;;;;;;;15.03;58.41;102051.19;2056950;28;19930;-67
2022/12/27 04:39:36;;;;;;;;;;;;;;;15.04;58.25;102057.44;2064154;28;19936;-68
2022/12/27 04:55:30;;;;;;;;;;;;;;;15.04;58.46;102049.28;2061554;28;20400;-68
2022/12/27 04:56:31;;;;;;;;;;;;;;;15.03;58.28;102050.41;2056923;28;19926;-68
2022/12/27 04:57:34;;;;;;;;;;;;;;;15.03;58.36;102051.19;2063608;28;20387;-68
2022/12/27 05:02:01;;;;;;;;;;;;;;;15.03;58.29;102055.88;2062834;28;19984;-68
2022/12/27 05:02:40;;;;;;;;;;;;;;;15.03;58.34;102066.75;2063132;28;19929;-68
2022/12/27 05:03:42;;;;;;;;;;;;;;;15.03;58.20;102072.19;2066141;28;20408;-68
2022/12/27 05:04:47;;;;;;;;;;;;;;;15.02;58.31;102067.84;2063869;28;20019;-69
2022/12/27 05:05:51;;;;;;;;;;;;;;;15.02;58.42;102068.66;2062796;28;20374;-68
2022/12/27 05:06:53;;;;;;;;;;;;;;;15.02;58.43;102070.56;2062256;28;19940;-69
2022/12/27 05:14:38;;;;;;;;;;;;;;;15.01;58.42;102088.81;2068137;28;20404;-66
2022/12/27 05:15:40;;;;;;;;;;;;;;;15.01;58.26;102083.38;2062274;28;19930;-68
2022/12/27 05:16:44;;;;;;;;;;;;;;;15.01;58.43;102096.19;2053664;28;19970;-67
2022/12/27 05:17:45;;;;;;;;;;;;;;;15.01;58.34;102090.75;2073049;28;19929;-69
2022/12/27 05:18:49;;;;;;;;;;;;;;;15.00;58.15;102089.16;2065325;28;19930;-68
2022/12/27 05:19:50;;;;;;;;;;;;;;;15.00;58.57;102086.44;2049653;28;19930;-68
2022/12/27 05:20:55;;;;;;;;;;;;;;;15.00;58.35;102091.88;2057009;28;19934;-68
2022/12/27 05:25:59;;;;;;;;;;;;;;;15.00;58.32;102091.88;2057845;28;20021;-68
2022/12/27 05:27:01;;;;;;;;;;;;;;;15.01;58.20;102082.59;2047366;28;19950;-68
2022/12/27 05:28:06;;;;;;;;;;;;;;;15.00;58.24;102084.50;2054370;28;19965;-68
2022/12/27 05:29:08;;;;;;;;;;;;;;;14.99;58.27;102085.66;2063565;28;19980;-67
2022/12/27 05:30:11;;;;;;;;;;;;;;;15.00;58.26;102089.16;2061527;28;20377;-67
2022/12/27 05:31:13;;;;;;;;;;;;;;;15.00;58.31;102092.69;2051670;28;19941;-67
2022/12/27 05:32:16;;;;;;;;;;;;;;;14.99;58.18;102088.38;2057878;28;20385;-68
2022/12/27 05:33:17;;;;;;;;;;;;;;;15.00;58.29;102094.59;2065453;28;20984;-68
2022/12/27 05:34:20;;;;;;;;;;;;;;;15.00;58.20;102091.88;2062835;28;19933;-68
2022/12/27 05:35:22;;;;;;;;;;;;;;;14.99;58.38;102091.09;2063717;28;19933;-68
2022/12/27 05:36:27;;;;;;;;;;;;;;;14.99;58.31;102095.75;2060522;28;19933;-68
2022/12/27 05:37:28;;;;;;;;;;;;;;;14.99;58.34;102095.75;2060388;28;20398;-68
2022/12/27 05:38:31;;;;;;;;;;;;;;;14.98;58.34;102094.94;2060422;28;19930;-68
2022/12/27 05:39:33;;;;;;;;;;;;;;;14.99;58.39;102084.84;2063614;28;19969;-68
2022/12/27 05:40:35;;;;;;;;;;;;;;;14.99;58.26;102095.75;2063626;28;20386;-69
2022/12/27 05:41:38;;;;;;;;;;;;;;;14.98;58.32;102092.22;2066369;28;19925;-68
2022/12/27 05:42:40;;;;;;;;;;;;;;;14.98;58.31;102097.66;2054694;28;20016;-69
2022/12/27 05:43:43;;;;;;;;;;;;;;;14.97;58.06;102098.78;2055175;28;19941;-69
2022/12/27 05:44:44;;;;;;;;;;;;;;;14.99;58.28;102106.63;2060185;28;19987;-69
2022/12/27 05:45:47;;;;;;;;;;;;;;;14.99;58.27;102106.63;2060006;28;19930;-68
2022/12/27 05:46:49;;;;;;;;;;;;;;;14.98;58.19;102103.09;2062054;28;19930;-68
2022/12/27 05:47:51;;;;;;;;;;;;;;;14.98;57.91;102094.16;2067589;28;19930;-68
2022/12/27 05:48:53;;;;;;;;;;;;;;;14.98;58.16;102099.59;2062751;28;19941;-68
2022/12/27 05:49:56;;;;;;;;;;;;;;;14.98;58.37;102113.97;2074216;28;19929;-68
2022/12/27 05:50:58;;;;;;;;;;;;;;;14.98;58.35;102105.03;2070862;28;19933;-68
2022/12/27 05:52:02;;;;;;;;;;;;;;;14.98;58.46;102110.47;2061090;28;19929;-68
2022/12/27 05:53:03;;;;;;;;;;;;;;;14.98;58.29;102107.75;2062334;28;19933;-69
2022/12/27 05:54:06;;;;;;;;;;;;;;;14.98;58.19;102110.47;2054498;28;19930;-69
2022/12/27 05:55:08;;;;;;;;;;;;;;;14.97;58.22;102109.69;2063059;28;19934;-69
2022/12/27 05:56:13;;;;;;;;;;;;;;;14.98;58.39;102115.91;2074862;28;20009;-68
2022/12/27 05:57:15;;;;;;;;;;;;;;;14.98;58.44;102113.19;2057877;28;19926;-70
2022/12/27 05:58:17;;;;;;;;;;;;;;;14.99;58.14;102117.50;2055060;28;20499;-69
2022/12/27 05:59:19;;;;;;;;;;;;;;;14.97;58.42;102114.31;2063036;28;20447;-68
2022/12/27 06:00:22;;;;;;;;;;;;;;;14.97;58.34;102120.56;2062756;28;20669;-67
2022/12/27 06:01:24;;;;;;;;;;;;;;;14.97;58.24;102123.28;2062712;28;19933;-67
2022/12/27 06:02:27;;;;;;;;;;;;;;;14.97;58.22;102120.56;2058619;28;19934;-67
2022/12/27 06:03:28;;;;;;;;;;;;;;;14.98;58.38;102124.06;2062408;28;19929;-68
2022/12/27 06:04:31;;;;;;;;;;;;;;;14.97;58.20;102119.75;2064328;28;19930;-69
2022/12/27 06:05:33;;;;;;;;;;;;;;;14.96;58.36;102112.72;2063478;28;19934;-68
2022/12/27 06:06:35;;;;;;;;;;;;;;;14.96;58.17;102118.19;2063135;28;19934;-68
2022/12/27 06:07:39;;;;;;;;;;;;;;;14.96;58.17;102124.41;2064880;28;19988;-69
2022/12/27 06:08:41;;;;;;;;;;;;;;;14.97;58.31;102125.19;2050632;28;20009;-68
2022/12/27 06:09:43;;;;;;;;;;;;;;;14.98;58.09;102129.50;2060021;28;19983;-68
2022/12/27 06:10:45;;;;;;;;;;;;;;;14.95;58.29;102128.25;2061224;28;19938;-69
2022/12/27 06:11:47;;;;;;;;;;;;;;;14.95;58.32;102128.25;2072267;28;19925;-68
2022/12/27 06:12:50;;;;;;;;;;;;;;;14.97;58.28;102136.06;2064417;28;19930;-68
2022/12/27 06:13:53;;;;;;;;;;;;;;;14.96;58.39;102129.06;2056284;28;19930;-68
2022/12/27 06:14:55;;;;;;;;;;;;;;;14.96;58.21;102134.50;2062156;28;19976;-68
2022/12/27 06:15:58;;;;;;;;;;;;;;;14.96;58.20;102131.78;2061764;28;19930;-69
2022/12/27 06:17:00;;;;;;;;;;;;;;;14.95;58.10;102136.41;2065741;28;19930;-69
2022/12/27 06:18:02;;;;;;;;;;;;;;;14.95;58.41;102138.34;2060253;28;19956;-68
2022/12/27 06:19:04;;;;;;;;;;;;;;;14.95;58.29;102139.13;2062371;28;19934;-69
2022/12/27 06:20:07;;;;;;;;;;;;;;;14.96;58.42;102139.94;2064705;28;19937;-69
2022/12/27 06:21:10;;;;;;;;;;;;;;;14.95;58.46;102143.78;2064072;28;20012;-70
2022/12/27 06:22:12;;;;;;;;;;;;;;;14.96;58.18;102145.38;2073900;28;20805;-68
2022/12/27 06:23:15;;;;;;;;;;;;;;;14.96;58.35;102139.94;2069602;28;20349;-69
2022/12/27 06:24:18;;;;;;;;;;;;;;;14.94;58.10;102137.56;2062411;28;20024;-68
2022/12/27 06:25:20;;;;;;;;;;;;;;;14.95;58.21;102143.78;2060492;28;19977;-68
2022/12/27 06:26:23;;;;;;;;;;;;;;;14.95;58.43;102138.34;2060060;28;20718;-67
2022/12/27 06:27:25;;;;;;;;;;;;;;;14.94;58.27;102143.00;2055422;28;20298;-67
2022/12/27 06:28:28;;;;;;;;;;;;;;;14.94;58.31;102147.63;2049806;28;19934;-69
2022/12/27 06:29:30;;;;;;;;;;;;;;;14.95;58.10;102143.78;2052310;28;19934;-68
2022/12/27 06:30:32;;;;;;;;;;;;;;;14.93;58.21;102146.84;2056130;28;19938;-69
2022/12/27 06:31:37;;;;;;;;;;;;;;;14.95;58.17;102141.06;2056280;28;19929;-69
2022/12/27 06:32:39;;;;;;;;;;;;;;;14.93;58.23;102141.41;2055375;28;19930;-68
2022/12/27 06:33:41;;;;;;;;;;;;;;;14.94;58.12;102144.91;2052534;28;19930;-68
2022/12/27 06:34:44;;;;;;;;;;;;;;;14.93;58.34;102146.84;2061055;28;19976;-68
2022/12/27 06:35:45;;;;;;;;;;;;;;;14.94;58.16;102142.19;2066903;28;19938;-68
2022/12/27 06:36:50;;;;;;;;;;;;;;;14.94;58.21;102147.63;2050947;28;19930;-70
2022/12/27 06:37:52;;;;;;;;;;;;;;;14.94;58.31;102137.56;2054930;28;19930;-69
2022/12/27 06:38:56;;;;;;;;;;;;;;;14.94;58.28;102144.91;2067954;28;19933;-68
2022/12/27 06:39:58;;;;;;;;;;;;;;;14.93;58.16;102152.28;2062268;28;20326;-68
2022/12/27 06:41:00;;;;;;;;;;;;;;;14.94;58.30;102153.06;2053384;28;20024;-69
2022/12/27 06:42:04;;;;;;;;;;;;;;;14.95;58.25;102151.94;2043117;28;19978;-68
2022/12/27 06:43:06;;;;;;;;;;;;;;;14.93;58.34;102151.50;2055711;28;19934;-68
2022/12/27 06:44:09;;;;;;;;;;;;;;;14.93;58.43;102156.94;2067932;28;19938;-69
2022/12/27 06:45:10;;;;;;;;;;;;;;;14.93;58.18;102156.94;2062750;28;20315;-68
2022/12/27 06:46:14;;;;;;;;;;;;;;;14.93;58.24;102163.16;2063064;28;19961;-69
2022/12/27 06:47:19;;;;;;;;;;;;;;;14.93;58.47;102162.38;2055940;28;19926;-68
2022/12/27 06:48:21;;;;;;;;;;;;;;;14.93;58.11;102168.59;2051637;28;19977;-69
2022/12/27 06:49:24;;;;;;;;;;;;;;;14.93;58.39;102159.66;2053226;28;19981;-69
2022/12/27 06:50:27;;;;;;;;;;;;;;;14.93;58.44;102156.94;2051772;28;19982;-68
2022/12/27 06:51:29;;;;;;;;;;;;;;;14.93;58.13;102167.81;2067021;28;19926;-69
2022/12/27 06:52:31;;;;;;;;;;;;;;;14.93;58.32;102165.09;2058478;28;19937;-68
2022/12/27 06:53:35;;;;;;;;;;;;;;;14.92;58.26;102167.00;2047954;28;19930;-68
2022/12/27 06:54:40;;;;;;;;;;;;;;;14.93;58.31;102156.94;2063841;28;19930;-68
2022/12/27 06:55:41;;;;;;;;;;;;;;;14.92;58.21;102164.28;2069435;28;19928;-68
2022/12/27 06:56:44;;;;;;;;;;;;;;;14.93;58.31;102170.53;2061114;28;19934;-69
2022/12/27 06:57:46;;;;;;;;;;;;;;;14.93;58.23;102178.69;2063452;28;20305;-69
2022/12/27 06:58:49;;;;;;;;;;;;;;;14.92;58.03;102166.22;2062048;28;19964;-69
2022/12/27 06:59:51;;;;;;;;;;;;;;;14.91;58.28;102164.63;2053621;28;20897;-68
2022/12/27 07:00:55;;;;;;;;;;;;;;;14.93;58.20;102167.81;2052933;28;20054;-69
2022/12/27 07:01:57;;;;;;;;;;;;;;;14.92;58.36;102160.78;2055722;28;20438;-68
2022/12/27 07:03:00;;;;;;;;;;;;;;;14.92;58.14;102171.66;2060363;28;19926;-68
2022/12/27 07:04:02;;;;;;;;;;;;;;;14.91;58.23;102187.19;2064018;28;19929;-70
2022/12/27 07:05:05;;;;;;;;;;;;;;;14.92;58.22;102185.25;2062269;28;20718;-68
2022/12/27 07:06:08;;;;;;;;;;;;;;;14.92;58.27;102185.25;2060193;28;20393;-69
2022/12/27 07:07:10;;;;;;;;;;;;;;;14.92;58.25;102187.97;2063279;28;19938;-68